Aviation Digital Data Service (ADDS)

Output produced by METARs form (1521 UTC 23 January 2019)
found at http://www.aviationweather.gov/metar/data/
 
METAR text: UHSS 231500Z 01006MPS 4500 -SHSN BKN023CB OVC033 M06/M07 Q1005 R01/810365 NOSIG RMK MT OBSC QFE752/1003
Conditions at: UHSS (JUZNO-SAHALINSK , RU) observed 1500 UTC 23 January 2019
Temperature: -6.0°C (21°F)
Dewpoint: -7.0°C (19°F) [RH = 93%]
Pressure (altimeter): 29.68 inches Hg (1005.0 mb)
Winds: from the N (10 degrees) at 14 MPH (12 knots; 6.2 m/s)
Visibility: 2.80 miles (4.51 km)
Ceiling: 2300 feet AGL
Clouds: broken clouds at 2300 feet AGL
overcast cloud deck at 3300 feet AGL
Weather: -SHSN  (light snow showers)

METAR text: UHSS 231400Z 04005MPS 8000 -SHSN BKN021CB M04/M07 Q1005 R01/810365 NOSIG RMK MT OBSC QFE753/1004
Conditions at: UHSS (JUZNO-SAHALINSK , RU) observed 1400 UTC 23 January 2019
Temperature: -4.0°C (25°F)
Dewpoint: -7.0°C (19°F) [RH = 80%]
Pressure (altimeter): 29.68 inches Hg (1005.0 mb)
Winds: from the NE (40 degrees) at 12 MPH (10 knots; 5.1 m/s)
Visibility: 5 miles ( 8 km)
Ceiling: 2100 feet AGL
Clouds: broken clouds at 2100 feet AGL
Weather: -SHSN  (light snow showers)

METAR text: UHSS 231300Z 02005MPS 9999 -SHSN SCT022CB M05/M08 Q1005 R01/810365 NOSIG RMK MT OBSC QFE753/1004
Conditions at: UHSS (JUZNO-SAHALINSK , RU) observed 1300 UTC 23 January 2019
Temperature: -5.0°C (23°F)
Dewpoint: -8.0°C (18°F) [RH = 79%]
Pressure (altimeter): 29.68 inches Hg (1005.0 mb)
Winds: from the NNE (20 degrees) at 12 MPH (10 knots; 5.1 m/s)
Visibility: 6 or more miles (10+ km)
Ceiling: at least 12,000 feet AGL
Clouds: scattered clouds at 2200 feet AGL
Weather: -SHSN  (light snow showers)

METAR text: UHSS 231200Z 05004MPS 9999 SCT033CB M05/M08 Q1006 R01/810365 NOSIG RMK MT OBSC QFE753/1004
Conditions at: UHSS (JUZNO-SAHALINSK , RU) observed 1200 UTC 23 January 2019
Temperature: -5.0°C (23°F)
Dewpoint: -8.0°C (18°F) [RH = 79%]
Pressure (altimeter): 29.70 inches Hg (1006.0 mb)
Winds: from the NE (50 degrees) at 9 MPH (8 knots; 4.1 m/s)
Visibility: 6 or more miles (10+ km)
Ceiling: at least 12,000 feet AGL
Clouds: scattered clouds at 3300 feet AGL
Weather: no significant weather observed at this time

METAR text: UHSS 231130Z 05004MPS 9999 SCT033CB M04/M08 Q1006 R01/810365 NOSIG RMK MT OBSC QFE753/1005
Conditions at: UHSS (JUZNO-SAHALINSK , RU) observed 1130 UTC 23 January 2019
Temperature: -4.0°C (25°F)
Dewpoint: -8.0°C (18°F) [RH = 74%]
Pressure (altimeter): 29.70 inches Hg (1006.0 mb)
Winds: from the NE (50 degrees) at 9 MPH (8 knots; 4.1 m/s)
Visibility: 6 or more miles (10+ km)
Ceiling: at least 12,000 feet AGL
Clouds: scattered clouds at 3300 feet AGL
Weather: no significant weather observed at this time

METAR text: UHSS 231100Z 01004MPS 9999 SCT033CB M06/M08 Q1006 R19/810365 NOSIG RMK MT OBSC QFE753/1005
Conditions at: UHSS (JUZNO-SAHALINSK , RU) observed 1100 UTC 23 January 2019
Temperature: -6.0°C (21°F)
Dewpoint: -8.0°C (18°F) [RH = 86%]
Pressure (altimeter): 29.70 inches Hg (1006.0 mb)
Winds: from the N (10 degrees) at 9 MPH (8 knots; 4.1 m/s)
Visibility: 6 or more miles (10+ km)
Ceiling: at least 12,000 feet AGL
Clouds: scattered clouds at 3300 feet AGL
Weather: no significant weather observed at this time

METAR text: UHSS 231030Z 01005MPS 9999 SCT033CB M06/M08 Q1006 R01/810365 NOSIG RMK MT OBSC QFE754/1005
Conditions at: UHSS (JUZNO-SAHALINSK , RU) observed 1030 UTC 23 January 2019
Temperature: -6.0°C (21°F)
Dewpoint: -8.0°C (18°F) [RH = 86%]
Pressure (altimeter): 29.70 inches Hg (1006.0 mb)
Winds: from the N (10 degrees) at 12 MPH (10 knots; 5.1 m/s)
Visibility: 6 or more miles (10+ km)
Ceiling: at least 12,000 feet AGL
Clouds: scattered clouds at 3300 feet AGL
Weather: no significant weather observed at this time

METAR text: UHSS 231000Z 36005MPS 9999 SCT035CB M06/M08 Q1007 R01/810365 NOSIG RMK QFE754/1005
Conditions at: UHSS (JUZNO-SAHALINSK , RU) observed 1000 UTC 23 January 2019
Temperature: -6.0°C (21°F)
Dewpoint: -8.0°C (18°F) [RH = 86%]
Pressure (altimeter): 29.73 inches Hg (1007.0 mb)
Winds: from the N (360 degrees) at 12 MPH (10 knots; 5.1 m/s)
Visibility: 6 or more miles (10+ km)
Ceiling: at least 12,000 feet AGL
Clouds: scattered clouds at 3500 feet AGL
Weather: no significant weather observed at this time

METAR text: UHSS 230930Z 36005MPS 9999 BKN031CB M06/M08 Q1007 R01/810365 NOSIG RMK MT OBSC QFE754/1005
Conditions at: UHSS (JUZNO-SAHALINSK , RU) observed 0930 UTC 23 January 2019
Temperature: -6.0°C (21°F)
Dewpoint: -8.0°C (18°F) [RH = 86%]
Pressure (altimeter): 29.73 inches Hg (1007.0 mb)
Winds: from the N (360 degrees) at 12 MPH (10 knots; 5.1 m/s)
Visibility: 6 or more miles (10+ km)
Ceiling: 3100 feet AGL
Clouds: broken clouds at 3100 feet AGL
Weather: no significant weather observed at this time

METAR text: UHSS 230900Z 15001MPS 9999 SCT026CB M05/M08 Q1007 R01/810365 NOSIG RMK MT OBSC QFE754/1005
Conditions at: UHSS (JUZNO-SAHALINSK , RU) observed 0900 UTC 23 January 2019
Temperature: -5.0°C (23°F)
Dewpoint: -8.0°C (18°F) [RH = 79%]
Pressure (altimeter): 29.73 inches Hg (1007.0 mb)
Winds: from the SSE (150 degrees) at 2 MPH (2 knots; 1.0 m/s)
Visibility: 6 or more miles (10+ km)
Ceiling: at least 12,000 feet AGL
Clouds: scattered clouds at 2600 feet AGL
Weather: no significant weather observed at this time

METAR text: UHSS 230830Z 01002MPS 9999 SCT046CB M05/M08 Q1006 R01/810365 NOSIG RMK QFE754/1005
Conditions at: UHSS (JUZNO-SAHALINSK , RU) observed 0830 UTC 23 January 2019
Temperature: -5.0°C (23°F)
Dewpoint: -8.0°C (18°F) [RH = 79%]
Pressure (altimeter): 29.70 inches Hg (1006.0 mb)
Winds: from the N (10 degrees) at 5 MPH (4 knots; 2.1 m/s)
Visibility: 6 or more miles (10+ km)
Ceiling: at least 12,000 feet AGL
Clouds: scattered clouds at 4600 feet AGL
Weather: no significant weather observed at this time

METAR text: UHSS 230800Z 06002MPS 9999 BKN028CB M04/M08 Q1006 R01/810365 NOSIG RMK MT OBSC QFE753/1005
Conditions at: UHSS (JUZNO-SAHALINSK , RU) observed 0800 UTC 23 January 2019
Temperature: -4.0°C (25°F)
Dewpoint: -8.0°C (18°F) [RH = 74%]
Pressure (altimeter): 29.70 inches Hg (1006.0 mb)
Winds: from the ENE (60 degrees) at 5 MPH (4 knots; 2.1 m/s)
Visibility: 6 or more miles (10+ km)
Ceiling: 2800 feet AGL
Clouds: broken clouds at 2800 feet AGL
Weather: no significant weather observed at this time

METAR text: UHSS 230730Z 06002MPS 9999 SCT026CB M04/M08 Q1006 R01/810365 NOSIG RMK MT OBSC QFE753/1005
Conditions at: UHSS (JUZNO-SAHALINSK , RU) observed 0730 UTC 23 January 2019
Temperature: -4.0°C (25°F)
Dewpoint: -8.0°C (18°F) [RH = 74%]
Pressure (altimeter): 29.70 inches Hg (1006.0 mb)
Winds: from the ENE (60 degrees) at 5 MPH (4 knots; 2.1 m/s)
Visibility: 6 or more miles (10+ km)
Ceiling: at least 12,000 feet AGL
Clouds: scattered clouds at 2600 feet AGL
Weather: no significant weather observed at this time

METAR text: UHSS 230700Z 04001MPS 9999 SCT033CB M03/M07 Q1006 R19/810365 NOSIG RMK MT OBSC QFE753/1005
Conditions at: UHSS (JUZNO-SAHALINSK , RU) observed 0700 UTC 23 January 2019
Temperature: -3.0°C (27°F)
Dewpoint: -7.0°C (19°F) [RH = 74%]
Pressure (altimeter): 29.70 inches Hg (1006.0 mb)
Winds: from the NE (40 degrees) at 2 MPH (2 knots; 1.0 m/s)
Visibility: 6 or more miles (10+ km)
Ceiling: at least 12,000 feet AGL
Clouds: scattered clouds at 3300 feet AGL
Weather: no significant weather observed at this time

METAR text: UHSS 230630Z 14002MPS 060V160 9999 SCT033CB M03/M07 Q1006 R19/810365 NOSIG RMK MT OBSC QFE753/1005
Conditions at: UHSS (JUZNO-SAHALINSK , RU) observed 0630 UTC 23 January 2019
Temperature: -3.0°C (27°F)
Dewpoint: -7.0°C (19°F) [RH = 74%]
Pressure (altimeter): 29.70 inches Hg (1006.0 mb)
Winds: from the SE (140 degrees) at 5 MPH (4 knots; 2.1 m/s)
Visibility: 6 or more miles (10+ km)
Ceiling: at least 12,000 feet AGL
Clouds: scattered clouds at 3300 feet AGL
Weather: no significant weather observed at this time

METAR text: UHSS 230600Z 14003G09MPS 9999 SCT026CB M03/M07 Q1006 R19/810365 NOSIG RMK MT OBSC QFE753/1005
Conditions at: UHSS (JUZNO-SAHALINSK , RU) observed 0600 UTC 23 January 2019
Temperature: -3.0°C (27°F)
Dewpoint: -7.0°C (19°F) [RH = 74%]
Pressure (altimeter): 29.70 inches Hg (1006.0 mb)
Winds: from the SE (140 degrees) at 7 MPH (6 knots; 3.1 m/s)
gusting to 20 MPH (17 knots; 8.7 m/s)
Visibility: 6 or more miles (10+ km)
Ceiling: at least 12,000 feet AGL
Clouds: scattered clouds at 2600 feet AGL
Weather: no significant weather observed at this time

METAR text: UHSS 230530Z 14003MPS 9999 SCT026CB M03/M07 Q1006 R19/810365 NOSIG RMK MT OBSC QFE753/1005
Conditions at: UHSS (JUZNO-SAHALINSK , RU) observed 0530 UTC 23 January 2019
Temperature: -3.0°C (27°F)
Dewpoint: -7.0°C (19°F) [RH = 74%]
Pressure (altimeter): 29.70 inches Hg (1006.0 mb)
Winds: from the SE (140 degrees) at 7 MPH (6 knots; 3.1 m/s)
Visibility: 6 or more miles (10+ km)
Ceiling: at least 12,000 feet AGL
Clouds: scattered clouds at 2600 feet AGL
Weather: no significant weather observed at this time

METAR text: UHSS 230500Z 15003MPS 9999 SCT026CB M02/M07 Q1006 R19/810365 NOSIG RMK MT OBSC QFE753/1005
Conditions at: UHSS (JUZNO-SAHALINSK , RU) observed 0500 UTC 23 January 2019
Temperature: -2.0°C (28°F)
Dewpoint: -7.0°C (19°F) [RH = 69%]
Pressure (altimeter): 29.70 inches Hg (1006.0 mb)
Winds: from the SSE (150 degrees) at 7 MPH (6 knots; 3.1 m/s)
Visibility: 6 or more miles (10+ km)
Ceiling: at least 12,000 feet AGL
Clouds: scattered clouds at 2600 feet AGL
Weather: no significant weather observed at this time

METAR text: UHSS 230430Z 13003MPS 9999 SCT026CB M02/M07 Q1006 R19/810365 NOSIG RMK MT OBSC QFE753/1005
Conditions at: UHSS (JUZNO-SAHALINSK , RU) observed 0430 UTC 23 January 2019
Temperature: -2.0°C (28°F)
Dewpoint: -7.0°C (19°F) [RH = 69%]
Pressure (altimeter): 29.70 inches Hg (1006.0 mb)
Winds: from the SE (130 degrees) at 7 MPH (6 knots; 3.1 m/s)
Visibility: 6 or more miles (10+ km)
Ceiling: at least 12,000 feet AGL
Clouds: scattered clouds at 2600 feet AGL
Weather: no significant weather observed at this time

METAR text: UHSS 230400Z 14002MPS 090V180 9999 SCT026CB M03/M07 Q1007 R01/810365 NOSIG RMK MT OBSC QFE754/1005
Conditions at: UHSS (JUZNO-SAHALINSK , RU) observed 0400 UTC 23 January 2019
Temperature: -3.0°C (27°F)
Dewpoint: -7.0°C (19°F) [RH = 74%]
Pressure (altimeter): 29.73 inches Hg (1007.0 mb)
Winds: from the SE (140 degrees) at 5 MPH (4 knots; 2.1 m/s)
Visibility: 6 or more miles (10+ km)
Ceiling: at least 12,000 feet AGL
Clouds: scattered clouds at 2600 feet AGL
Weather: no significant weather observed at this time

METAR text: UHSS 230330Z 11003MPS 6000 -SHSN SCT026CB M03/M07 Q1007 R01/810365 NOSIG RMK MT OBSC QFE754/1005
Conditions at: UHSS (JUZNO-SAHALINSK , RU) observed 0330 UTC 23 January 2019
Temperature: -3.0°C (27°F)
Dewpoint: -7.0°C (19°F) [RH = 74%]
Pressure (altimeter): 29.73 inches Hg (1007.0 mb)
Winds: from the ESE (110 degrees) at 7 MPH (6 knots; 3.1 m/s)
Visibility: 4 miles ( 6 km)
Ceiling: at least 12,000 feet AGL
Clouds: scattered clouds at 2600 feet AGL
Weather: -SHSN  (light snow showers)

METAR text: UHSS 230300Z 32002MPS 280V350 9999 SCT026CB M04/M09 Q1007 R01/810365 NOSIG RMK MT OBSC QFE754/1006
Conditions at: UHSS (JUZNO-SAHALINSK , RU) observed 0300 UTC 23 January 2019
Temperature: -4.0°C (25°F)
Dewpoint: -9.0°C (16°F) [RH = 68%]
Pressure (altimeter): 29.73 inches Hg (1007.0 mb)
Winds: from the NW (320 degrees) at 5 MPH (4 knots; 2.1 m/s)
Visibility: 6 or more miles (10+ km)
Ceiling: at least 12,000 feet AGL
Clouds: scattered clouds at 2600 feet AGL
Weather: no significant weather observed at this time

METAR text: UHSS 230230Z 36002MPS 9999 SCT026CB M05/M09 Q1008 R01/810365 NOSIG RMK MT OBSC QFE755/1006
Conditions at: UHSS (JUZNO-SAHALINSK , RU) observed 0230 UTC 23 January 2019
Temperature: -5.0°C (23°F)
Dewpoint: -9.0°C (16°F) [RH = 73%]
Pressure (altimeter): 29.76 inches Hg (1008.0 mb)
Winds: from the N (360 degrees) at 5 MPH (4 knots; 2.1 m/s)
Visibility: 6 or more miles (10+ km)
Ceiling: at least 12,000 feet AGL
Clouds: scattered clouds at 2600 feet AGL
Weather: no significant weather observed at this time

METAR text: UHSS 230200Z 35003MPS 9999 SCT026CB M07/M10 Q1008 R01/810365 NOSIG RMK MT OBSC QFE755/1006
Conditions at: UHSS (JUZNO-SAHALINSK , RU) observed 0200 UTC 23 January 2019
Temperature: -7.0°C (19°F)
Dewpoint: -10.0°C (14°F) [RH = 79%]
Pressure (altimeter): 29.76 inches Hg (1008.0 mb)
Winds: from the N (350 degrees) at 7 MPH (6 knots; 3.1 m/s)
Visibility: 6 or more miles (10+ km)
Ceiling: at least 12,000 feet AGL
Clouds: scattered clouds at 2600 feet AGL
Weather: no significant weather observed at this time

METAR text: UHSS 230130Z 01003MPS 9999 SCT026CB M07/M10 Q1008 R01/810365 NOSIG RMK MT OBSC QFE755/1007
Conditions at: UHSS (JUZNO-SAHALINSK , RU) observed 0130 UTC 23 January 2019
Temperature: -7.0°C (19°F)
Dewpoint: -10.0°C (14°F) [RH = 79%]
Pressure (altimeter): 29.76 inches Hg (1008.0 mb)
Winds: from the N (10 degrees) at 7 MPH (6 knots; 3.1 m/s)
Visibility: 6 or more miles (10+ km)
Ceiling: at least 12,000 feet AGL
Clouds: scattered clouds at 2600 feet AGL
Weather: no significant weather observed at this time

METAR text: UHSS 230100Z 01003MPS 9999 SCT020CB M08/M11 Q1009 R01/810365 NOSIG RMK MT OBSC QFE755/1007
Conditions at: UHSS (JUZNO-SAHALINSK , RU) observed 0100 UTC 23 January 2019
Temperature: -8.0°C (18°F)
Dewpoint: -11.0°C (12°F) [RH = 79%]
Pressure (altimeter): 29.79 inches Hg (1009.0 mb)
Winds: from the N (10 degrees) at 7 MPH (6 knots; 3.1 m/s)
Visibility: 6 or more miles (10+ km)
Ceiling: at least 12,000 feet AGL
Clouds: scattered clouds at 2000 feet AGL
Weather: no significant weather observed at this time

METAR text: UHSS 230030Z 01003MPS 9999 SCT020CB M10/M12 Q1009 R01/810365 NOSIG RMK MT OBSC QFE755/1007
Conditions at: UHSS (JUZNO-SAHALINSK , RU) observed 0030 UTC 23 January 2019
Temperature: -10.0°C (14°F)
Dewpoint: -12.0°C (10°F) [RH = 85%]
Pressure (altimeter): 29.79 inches Hg (1009.0 mb)
Winds: from the N (10 degrees) at 7 MPH (6 knots; 3.1 m/s)
Visibility: 6 or more miles (10+ km)
Ceiling: at least 12,000 feet AGL
Clouds: scattered clouds at 2000 feet AGL
Weather: no significant weather observed at this time

METAR text: UHSS 230000Z 36003MPS 8000 SCT020CB M11/M13 Q1009 R01/810365 NOSIG RMK MT OBSC QFE755/1007
Conditions at: UHSS (JUZNO-SAHALINSK , RU) observed 0000 UTC 23 January 2019
Temperature: -11.0°C (12°F)
Dewpoint: -13.0°C ( 9°F) [RH = 85%]
Pressure (altimeter): 29.79 inches Hg (1009.0 mb)
Winds: from the N (360 degrees) at 7 MPH (6 knots; 3.1 m/s)
Visibility: 5 miles ( 8 km)
Ceiling: at least 12,000 feet AGL
Clouds: scattered clouds at 2000 feet AGL
Weather: no significant weather observed at this time

METAR text: UHSS 222330Z 01002MPS 6000 SCT020CB M12/M14 Q1009 R01/810365 NOSIG RMK MT OBSC QFE755/1007
Conditions at: UHSS (JUZNO-SAHALINSK , RU) observed 2330 UTC 22 January 2019
Temperature: -12.0°C (10°F)
Dewpoint: -14.0°C ( 7°F) [RH = 85%]
Pressure (altimeter): 29.79 inches Hg (1009.0 mb)
Winds: from the N (10 degrees) at 5 MPH (4 knots; 2.1 m/s)
Visibility: 4 miles ( 6 km)
Ceiling: at least 12,000 feet AGL
Clouds: scattered clouds at 2000 feet AGL
Weather: no significant weather observed at this time

METAR text: UHSS 222300Z 01002MPS 6000 SCT020CB M13/M15 Q1009 R01/810365 NOSIG RMK MT OBSC QFE755/1007
Conditions at: UHSS (JUZNO-SAHALINSK , RU) observed 2300 UTC 22 January 2019
Temperature: -13.0°C ( 9°F)
Dewpoint: -15.0°C ( 5°F) [RH = 85%]
Pressure (altimeter): 29.79 inches Hg (1009.0 mb)
Winds: from the N (10 degrees) at 5 MPH (4 knots; 2.1 m/s)
Visibility: 4 miles ( 6 km)
Ceiling: at least 12,000 feet AGL
Clouds: scattered clouds at 2000 feet AGL
Weather: no significant weather observed at this time

METAR text: UHSS 222230Z 01001MPS 4100 -SHSN FU SCT020CB M14/M15 Q1009 R01/810365 NOSIG RMK MT OBSC QFE755/1007
Conditions at: UHSS (JUZNO-SAHALINSK , RU) observed 2230 UTC 22 January 2019
Temperature: -14.0°C ( 7°F)
Dewpoint: -15.0°C ( 5°F) [RH = 92%]
Pressure (altimeter): 29.79 inches Hg (1009.0 mb)
Winds: from the N (10 degrees) at 2 MPH (2 knots; 1.0 m/s)
Visibility: 2.55 miles (4.10 km)
Ceiling: at least 12,000 feet AGL
Clouds: scattered clouds at 2000 feet AGL
Weather: -SHSN FU  (light snow showers, smoke)

METAR text: UHSS 222200Z 02003MPS 7000 -SHSN SCT040CB M13/M15 Q1009 R01/810365 NOSIG RMK QFE755/1007
Conditions at: UHSS (JUZNO-SAHALINSK , RU) observed 2200 UTC 22 January 2019
Temperature: -13.0°C ( 9°F)
Dewpoint: -15.0°C ( 5°F) [RH = 85%]
Pressure (altimeter): 29.79 inches Hg (1009.0 mb)
Winds: from the NNE (20 degrees) at 7 MPH (6 knots; 3.1 m/s)
Visibility: 4 miles ( 7 km)
Ceiling: at least 12,000 feet AGL
Clouds: scattered clouds at 4000 feet AGL
Weather: -SHSN  (light snow showers)

METAR text: UHSS 222130Z 36003MPS 7000 -SHSN SCT046CB M13/M15 Q1009 R01/810365 NOSIG RMK QFE755/1007
Conditions at: UHSS (JUZNO-SAHALINSK , RU) observed 2130 UTC 22 January 2019
Temperature: -13.0°C ( 9°F)
Dewpoint: -15.0°C ( 5°F) [RH = 85%]
Pressure (altimeter): 29.79 inches Hg (1009.0 mb)
Winds: from the N (360 degrees) at 7 MPH (6 knots; 3.1 m/s)
Visibility: 4 miles ( 7 km)
Ceiling: at least 12,000 feet AGL
Clouds: scattered clouds at 4600 feet AGL
Weather: -SHSN  (light snow showers)

METAR text: UHSS 222100Z 35001MPS 6000 -SHSN SCT024CB M13/M15 Q1009 R01/810365 NOSIG RMK MT OBSC QFE755/1007
Conditions at: UHSS (JUZNO-SAHALINSK , RU) observed 2100 UTC 22 January 2019
Temperature: -13.0°C ( 9°F)
Dewpoint: -15.0°C ( 5°F) [RH = 85%]
Pressure (altimeter): 29.79 inches Hg (1009.0 mb)
Winds: from the N (350 degrees) at 2 MPH (2 knots; 1.0 m/s)
Visibility: 4 miles ( 6 km)
Ceiling: at least 12,000 feet AGL
Clouds: scattered clouds at 2400 feet AGL
Weather: -SHSN  (light snow showers)

METAR text: UHSS 222030Z 36002MPS 7000 -SHSN SCT042CB M14/M15 Q1009 R01/810365 NOSIG RMK QFE755/1007
Conditions at: UHSS (JUZNO-SAHALINSK , RU) observed 2030 UTC 22 January 2019
Temperature: -14.0°C ( 7°F)
Dewpoint: -15.0°C ( 5°F) [RH = 92%]
Pressure (altimeter): 29.79 inches Hg (1009.0 mb)
Winds: from the N (360 degrees) at 5 MPH (4 knots; 2.1 m/s)
Visibility: 4 miles ( 7 km)
Ceiling: at least 12,000 feet AGL
Clouds: scattered clouds at 4200 feet AGL
Weather: -SHSN  (light snow showers)

METAR text: UHSS 222000Z 35001MPS 8000 -SHSN SCT033CB BKN043 M14/M15 Q1009 R01/810365 NOSIG RMK MT OBSC QFE755/1007
Conditions at: UHSS (JUZNO-SAHALINSK , RU) observed 2000 UTC 22 January 2019
Temperature: -14.0°C ( 7°F)
Dewpoint: -15.0°C ( 5°F) [RH = 92%]
Pressure (altimeter): 29.79 inches Hg (1009.0 mb)
Winds: from the N (350 degrees) at 2 MPH (2 knots; 1.0 m/s)
Visibility: 5 miles ( 8 km)
Ceiling: 4300 feet AGL
Clouds: scattered clouds at 3300 feet AGL
broken clouds at 4300 feet AGL
Weather: -SHSN  (light snow showers)

METAR text: UHSS 221930Z 04001MPS 9999 SCT040 M14/M15 Q1009 R01/810365 NOSIG RMK QFE756/1008
Conditions at: UHSS (JUZNO-SAHALINSK , RU) observed 1930 UTC 22 January 2019
Temperature: -14.0°C ( 7°F)
Dewpoint: -15.0°C ( 5°F) [RH = 92%]
Pressure (altimeter): 29.79 inches Hg (1009.0 mb)
Winds: from the NE (40 degrees) at 2 MPH (2 knots; 1.0 m/s)
Visibility: 6 or more miles (10+ km)
Ceiling: at least 12,000 feet AGL
Clouds: scattered clouds at 4000 feet AGL
Weather: no significant weather observed at this time

METAR text: UHSS 221900Z 08001MPS 9999 SCT040 M16/M18 Q1009 R01/810365 NOSIG RMK QFE756/1008
Conditions at: UHSS (JUZNO-SAHALINSK , RU) observed 1900 UTC 22 January 2019
Temperature: -16.0°C ( 3°F)
Dewpoint: -18.0°C (-0°F) [RH = 85%]
Pressure (altimeter): 29.79 inches Hg (1009.0 mb)
Winds: from the E (80 degrees) at 2 MPH (2 knots; 1.0 m/s)
Visibility: 6 or more miles (10+ km)
Ceiling: at least 12,000 feet AGL
Clouds: scattered clouds at 4000 feet AGL
Weather: no significant weather observed at this time

METAR text: UHSS 221800Z 08001MPS 3000 FU FEW040 M17/M18 Q1009 R01/810365 NOSIG RMK QFE755/1007
Conditions at: UHSS (JUZNO-SAHALINSK , RU) observed 1800 UTC 22 January 2019
Temperature: -17.0°C ( 1°F)
Dewpoint: -18.0°C (-0°F) [RH = 92%]
Pressure (altimeter): 29.79 inches Hg (1009.0 mb)
Winds: from the E (80 degrees) at 2 MPH (2 knots; 1.0 m/s)
Visibility: 1.86 miles (2.99 km)
Ceiling: at least 12,000 feet AGL
Clouds: few clouds at 4000 feet AGL
Weather: FU  (smoke)

METAR text: UHSS 221700Z 34002MPS 300V010 3000 FU FEW040 M16/M17 Q1009 R01/810365 NOSIG RMK QFE756/1008
Conditions at: UHSS (JUZNO-SAHALINSK , RU) observed 1700 UTC 22 January 2019
Temperature: -16.0°C ( 3°F)
Dewpoint: -17.0°C ( 1°F) [RH = 92%]
Pressure (altimeter): 29.79 inches Hg (1009.0 mb)
Winds: from the NNW (340 degrees) at 5 MPH (4 knots; 2.1 m/s)
Visibility: 1.86 miles (2.99 km)
Ceiling: at least 12,000 feet AGL
Clouds: few clouds at 4000 feet AGL
Weather: FU  (smoke)

METAR text: UHSS 221600Z 03001MPS 3000 -SHSN FU BKN029CB M16/M17 Q1009 R01/810365 NOSIG RMK MT OBSC QFE756/1008
Conditions at: UHSS (JUZNO-SAHALINSK , RU) observed 1600 UTC 22 January 2019
Temperature: -16.0°C ( 3°F)
Dewpoint: -17.0°C ( 1°F) [RH = 92%]
Pressure (altimeter): 29.79 inches Hg (1009.0 mb)
Winds: from the NNE (30 degrees) at 2 MPH (2 knots; 1.0 m/s)
Visibility: 1.86 miles (2.99 km)
Ceiling: 2900 feet AGL
Clouds: broken clouds at 2900 feet AGL
Weather: -SHSN FU  (light snow showers, smoke)

METAR text: UHSS 221500Z 34002MPS 300V010 6000 SCT028 M17/M19 Q1009 R01/810365 NOSIG RMK MT OBSC QFE755/1007
Conditions at: UHSS (JUZNO-SAHALINSK , RU) observed 1500 UTC 22 January 2019
Temperature: -17.0°C ( 1°F)
Dewpoint: -19.0°C (-2°F) [RH = 84%]
Pressure (altimeter): 29.79 inches Hg (1009.0 mb)
Winds: from the NNW (340 degrees) at 5 MPH (4 knots; 2.1 m/s)
Visibility: 4 miles ( 6 km)
Ceiling: at least 12,000 feet AGL
Clouds: scattered clouds at 2800 feet AGL
Weather: no significant weather observed at this time

METAR text: UHSS 221400Z 09002MPS 6000 SCT027 M18/M19 Q1009 R01/810365 NOSIG RMK MT OBSC QFE756/1008
Conditions at: UHSS (JUZNO-SAHALINSK , RU) observed 1400 UTC 22 January 2019
Temperature: -18.0°C (-0°F)
Dewpoint: -19.0°C (-2°F) [RH = 92%]
Pressure (altimeter): 29.79 inches Hg (1009.0 mb)
Winds: from the E (90 degrees) at 5 MPH (4 knots; 2.1 m/s)
Visibility: 4 miles ( 6 km)
Ceiling: at least 12,000 feet AGL
Clouds: scattered clouds at 2700 feet AGL
Weather: no significant weather observed at this time

METAR text: UHSS 221300Z 00000MPS 4000 FU SCT026 M20/M22 Q1009 R01/810365 NOSIG RMK MT OBSC QFE755/1007
Conditions at: UHSS (JUZNO-SAHALINSK , RU) observed 1300 UTC 22 January 2019
Temperature: -20.0°C (-4°F)
Dewpoint: -22.0°C (-8°F) [RH = 84%]
Pressure (altimeter): 29.79 inches Hg (1009.0 mb)
Winds: calm
Visibility: 2.49 miles (4.01 km)
Ceiling: at least 12,000 feet AGL
Clouds: scattered clouds at 2600 feet AGL
Weather: FU  (smoke)

METAR text: UHSS 221230Z 00000MPS 9999 SCT020 M20/M22 Q1009 R01/810365 NOSIG RMK MT OBSC QFE755/1007
Conditions at: UHSS (JUZNO-SAHALINSK , RU) observed 1230 UTC 22 January 2019
Temperature: -20.0°C (-4°F)
Dewpoint: -22.0°C (-8°F) [RH = 84%]
Pressure (altimeter): 29.79 inches Hg (1009.0 mb)
Winds: calm
Visibility: 6 or more miles (10+ km)
Ceiling: at least 12,000 feet AGL
Clouds: scattered clouds at 2000 feet AGL
Weather: no significant weather observed at this time

METAR text: UHSS 221200Z 00000MPS 9999 NSC M20/M22 Q1009 R01/810365 NOSIG RMK QFE755/1007
Conditions at: UHSS (JUZNO-SAHALINSK , RU) observed 1200 UTC 22 January 2019
Temperature: -20.0°C (-4°F)
Dewpoint: -22.0°C (-8°F) [RH = 84%]
Pressure (altimeter): 29.79 inches Hg (1009.0 mb)
Winds: calm
Visibility: 6 or more miles (10+ km)
Ceiling: at least 12,000 feet AGL
Clouds: sky clear below 12,000 feet AGL
Weather: no significant weather observed at this time

METAR text: UHSS 221130Z 00000MPS 9999 NSC M19/M20 Q1008 R01/810365 NOSIG RMK QFE755/1007
Conditions at: UHSS (JUZNO-SAHALINSK , RU) observed 1130 UTC 22 January 2019
Temperature: -19.0°C (-2°F)
Dewpoint: -20.0°C (-4°F) [RH = 92%]
Pressure (altimeter): 29.76 inches Hg (1008.0 mb)
Winds: calm
Visibility: 6 or more miles (10+ km)
Ceiling: at least 12,000 feet AGL
Clouds: sky clear below 12,000 feet AGL
Weather: no significant weather observed at this time

METAR text: UHSS 221100Z 18001MPS 9999 NSC M19/M21 Q1008 R01/810365 NOSIG RMK QFE755/1007
Conditions at: UHSS (JUZNO-SAHALINSK , RU) observed 1100 UTC 22 January 2019
Temperature: -19.0°C (-2°F)
Dewpoint: -21.0°C (-6°F) [RH = 84%]
Pressure (altimeter): 29.76 inches Hg (1008.0 mb)
Winds: from the S (180 degrees) at 2 MPH (2 knots; 1.0 m/s)
Visibility: 6 or more miles (10+ km)
Ceiling: at least 12,000 feet AGL
Clouds: sky clear below 12,000 feet AGL
Weather: no significant weather observed at this time

METAR text: UHSS 221030Z 06001MPS 9999 NSC M19/M21 Q1008 R01/810365 NOSIG RMK QFE755/1006
Conditions at: UHSS (JUZNO-SAHALINSK , RU) observed 1030 UTC 22 January 2019
Temperature: -19.0°C (-2°F)
Dewpoint: -21.0°C (-6°F) [RH = 84%]
Pressure (altimeter): 29.76 inches Hg (1008.0 mb)
Winds: from the ENE (60 degrees) at 2 MPH (2 knots; 1.0 m/s)
Visibility: 6 or more miles (10+ km)
Ceiling: at least 12,000 feet AGL
Clouds: sky clear below 12,000 feet AGL
Weather: no significant weather observed at this time

METAR text: UHSS 221000Z 00000MPS 9999 NSC M16/M18 Q1008 R19/810365 NOSIG RMK QFE754/1006
Conditions at: UHSS (JUZNO-SAHALINSK , RU) observed 1000 UTC 22 January 2019
Temperature: -16.0°C ( 3°F)
Dewpoint: -18.0°C (-0°F) [RH = 85%]
Pressure (altimeter): 29.76 inches Hg (1008.0 mb)
Winds: calm
Visibility: 6 or more miles (10+ km)
Ceiling: at least 12,000 feet AGL
Clouds: sky clear below 12,000 feet AGL
Weather: no significant weather observed at this time

METAR text: UHSS 220930Z 08001MPS 9999 NSC M16/M18 Q1007 R19/810365 NOSIG RMK QFE754/1006
Conditions at: UHSS (JUZNO-SAHALINSK , RU) observed 0930 UTC 22 January 2019
Temperature: -16.0°C ( 3°F)
Dewpoint: -18.0°C (-0°F) [RH = 85%]
Pressure (altimeter): 29.73 inches Hg (1007.0 mb)
Winds: from the E (80 degrees) at 2 MPH (2 knots; 1.0 m/s)
Visibility: 6 or more miles (10+ km)
Ceiling: at least 12,000 feet AGL
Clouds: sky clear below 12,000 feet AGL
Weather: no significant weather observed at this time

METAR text: UHSS 220900Z 00000MPS 9999 NSC M14/M16 Q1007 R19/810365 NOSIG RMK QFE754/1006
Conditions at: UHSS (JUZNO-SAHALINSK , RU) observed 0900 UTC 22 January 2019
Temperature: -14.0°C ( 7°F)
Dewpoint: -16.0°C ( 3°F) [RH = 85%]
Pressure (altimeter): 29.73 inches Hg (1007.0 mb)
Winds: calm
Visibility: 6 or more miles (10+ km)
Ceiling: at least 12,000 feet AGL
Clouds: sky clear below 12,000 feet AGL
Weather: no significant weather observed at this time

METAR text: UHSS 220830Z 00000MPS 9999 FEW040 M13/M16 Q1007 R19/810365 NOSIG RMK QFE754/1005
Conditions at: UHSS (JUZNO-SAHALINSK , RU) observed 0830 UTC 22 January 2019
Temperature: -13.0°C ( 9°F)
Dewpoint: -16.0°C ( 3°F) [RH = 78%]
Pressure (altimeter): 29.73 inches Hg (1007.0 mb)
Winds: calm
Visibility: 6 or more miles (10+ km)
Ceiling: at least 12,000 feet AGL
Clouds: few clouds at 4000 feet AGL
Weather: no significant weather observed at this time

METAR text: UHSS 220800Z 30001MPS 9999 FEW040 M11/M14 Q1006 R19/810365 NOSIG RMK QFE753/1004
Conditions at: UHSS (JUZNO-SAHALINSK , RU) observed 0800 UTC 22 January 2019
Temperature: -11.0°C (12°F)
Dewpoint: -14.0°C ( 7°F) [RH = 78%]
Pressure (altimeter): 29.70 inches Hg (1006.0 mb)
Winds: from the WNW (300 degrees) at 2 MPH (2 knots; 1.0 m/s)
Visibility: 6 or more miles (10+ km)
Ceiling: at least 12,000 feet AGL
Clouds: few clouds at 4000 feet AGL
Weather: no significant weather observed at this time

METAR text: UHSS 220730Z 26002MPS 9999 FEW040 M09/M14 Q1006 R19/810365 NOSIG RMK QFE753/1004
Conditions at: UHSS (JUZNO-SAHALINSK , RU) observed 0730 UTC 22 January 2019
Temperature: -9.0°C (16°F)
Dewpoint: -14.0°C ( 7°F) [RH = 67%]
Pressure (altimeter): 29.70 inches Hg (1006.0 mb)
Winds: from the W (260 degrees) at 5 MPH (4 knots; 2.1 m/s)
Visibility: 6 or more miles (10+ km)
Ceiling: at least 12,000 feet AGL
Clouds: few clouds at 4000 feet AGL
Weather: no significant weather observed at this time

METAR text: UHSS 220700Z 29001MPS 9999 FEW033 M07/M14 Q1006 R19/810365 NOSIG RMK MT OBSC QFE753/1004
Conditions at: UHSS (JUZNO-SAHALINSK , RU) observed 0700 UTC 22 January 2019
Temperature: -7.0°C (19°F)
Dewpoint: -14.0°C ( 7°F) [RH = 57%]
Pressure (altimeter): 29.70 inches Hg (1006.0 mb)
Winds: from the WNW (290 degrees) at 2 MPH (2 knots; 1.0 m/s)
Visibility: 6 or more miles (10+ km)
Ceiling: at least 12,000 feet AGL
Clouds: few clouds at 3300 feet AGL
Weather: no significant weather observed at this time

METAR text: UHSS 220630Z 31001MPS 9999 FEW033 M07/M14 Q1005 R01/810365 NOSIG RMK MT OBSC QFE753/1004
Conditions at: UHSS (JUZNO-SAHALINSK , RU) observed 0630 UTC 22 January 2019
Temperature: -7.0°C (19°F)
Dewpoint: -14.0°C ( 7°F) [RH = 57%]
Pressure (altimeter): 29.68 inches Hg (1005.0 mb)
Winds: from the NW (310 degrees) at 2 MPH (2 knots; 1.0 m/s)
Visibility: 6 or more miles (10+ km)
Ceiling: at least 12,000 feet AGL
Clouds: few clouds at 3300 feet AGL
Weather: no significant weather observed at this time

METAR text: UHSS 220600Z 00000MPS 9999 FEW033 M06/M13 Q1005 R01/810365 NOSIG RMK MT OBSC QFE752/1003
Conditions at: UHSS (JUZNO-SAHALINSK , RU) observed 0600 UTC 22 January 2019
Temperature: -6.0°C (21°F)
Dewpoint: -13.0°C ( 9°F) [RH = 58%]
Pressure (altimeter): 29.68 inches Hg (1005.0 mb)
Winds: calm
Visibility: 6 or more miles (10+ km)
Ceiling: at least 12,000 feet AGL
Clouds: few clouds at 3300 feet AGL
Weather: no significant weather observed at this time

METAR text: UHSS 220530Z 34001MPS 9999 FEW033 M07/M14 Q1004 R01/810365 NOSIG RMK MT OBSC QFE752/1003
Conditions at: UHSS (JUZNO-SAHALINSK , RU) observed 0530 UTC 22 January 2019
Temperature: -7.0°C (19°F)
Dewpoint: -14.0°C ( 7°F) [RH = 57%]
Pressure (altimeter): 29.65 inches Hg (1004.0 mb)
Winds: from the NNW (340 degrees) at 2 MPH (2 knots; 1.0 m/s)
Visibility: 6 or more miles (10+ km)
Ceiling: at least 12,000 feet AGL
Clouds: few clouds at 3300 feet AGL
Weather: no significant weather observed at this time

METAR text: UHSS 220500Z 30002MPS 260V350 9999 FEW033 M06/M14 Q1004 R01/810365 NOSIG RMK MT OBSC QFE752/1003
Conditions at: UHSS (JUZNO-SAHALINSK , RU) observed 0500 UTC 22 January 2019
Temperature: -6.0°C (21°F)
Dewpoint: -14.0°C ( 7°F) [RH = 53%]
Pressure (altimeter): 29.65 inches Hg (1004.0 mb)
Winds: from the WNW (300 degrees) at 5 MPH (4 knots; 2.1 m/s)
Visibility: 6 or more miles (10+ km)
Ceiling: at least 12,000 feet AGL
Clouds: few clouds at 3300 feet AGL
Weather: no significant weather observed at this time

METAR text: UHSS 220430Z 36002MPS 9999 SCT024 M07/M13 Q1004 R01/810365 NOSIG RMK MT OBSC QFE752/1003
Conditions at: UHSS (JUZNO-SAHALINSK , RU) observed 0430 UTC 22 January 2019
Temperature: -7.0°C (19°F)
Dewpoint: -13.0°C ( 9°F) [RH = 62%]
Pressure (altimeter): 29.65 inches Hg (1004.0 mb)
Winds: from the N (360 degrees) at 5 MPH (4 knots; 2.1 m/s)
Visibility: 6 or more miles (10+ km)
Ceiling: at least 12,000 feet AGL
Clouds: scattered clouds at 2400 feet AGL
Weather: no significant weather observed at this time

METAR text: UHSS 220400Z 01003MPS 9999 FEW033 M07/M13 Q1004 R01/810365 NOSIG RMK MT OBSC QFE752/1002
Conditions at: UHSS (JUZNO-SAHALINSK , RU) observed 0400 UTC 22 January 2019
Temperature: -7.0°C (19°F)
Dewpoint: -13.0°C ( 9°F) [RH = 62%]
Pressure (altimeter): 29.65 inches Hg (1004.0 mb)
Winds: from the N (10 degrees) at 7 MPH (6 knots; 3.1 m/s)
Visibility: 6 or more miles (10+ km)
Ceiling: at least 12,000 feet AGL
Clouds: few clouds at 3300 feet AGL
Weather: no significant weather observed at this time

METAR text: UHSS 220330Z 01003MPS 9999 FEW040 M07/M13 Q1004 R01/810365 NOSIG RMK QFE752/1002
Conditions at: UHSS (JUZNO-SAHALINSK , RU) observed 0330 UTC 22 January 2019
Temperature: -7.0°C (19°F)
Dewpoint: -13.0°C ( 9°F) [RH = 62%]
Pressure (altimeter): 29.65 inches Hg (1004.0 mb)
Winds: from the N (10 degrees) at 7 MPH (6 knots; 3.1 m/s)
Visibility: 6 or more miles (10+ km)
Ceiling: at least 12,000 feet AGL
Clouds: few clouds at 4000 feet AGL
Weather: no significant weather observed at this time

Forecast for: UHSS (JUZNO-SAHALINSK , RU)
Text: TAF UHSS 231400Z 2315/2421 04003MPS 5000 -SHSN BKN020CB
Forecast period: 1500 UTC 23 January 2019 to 2100 UTC 24 January 2019
Forecast type: FROM: standard forecast or significant change
Winds: from the NE (40 degrees) at 7 MPH (6 knots; 3.1 m/s)
Visibility: 3 miles (5 km)
Ceiling: 2000 feet AGL
Clouds: broken clouds at 2000 feet AGL
Weather: -SHSN  (light snow showers)
Text: TEMPO 2315/2406 04005G10MPS 1400 SHSN BKN010CB
Forecast period: 1500 UTC 23 January 2019 to 0600 UTC 24 January 2019
Forecast type: TEMPORARY: The following changes expected for less than half the time period
Winds: from the NE (40 degrees) at 12 MPH (10 knots; 5.1 m/s)
gusting to 22 MPH (19 knots; 9.8 m/s)
Visibility: 0.87 miles (1.40 km)
Ceiling: 1000 feet AGL
Clouds: broken clouds at 1000 feet AGL
Weather: SHSN  (snow showers)